Carlton, Minnesota
Current Conditions -  °F | °C
As of 11:17 PM on Friday 28 Nov 2014 (Local Time) from KCOQ Reporting Station
Overcast Overcast  
Wind Chill:   Ceiling: 2800
Heat Index: 18°   Visibility: 10mi
Dew Point: 12°   Wind: 6mph
Humidity: 79%   Direction: 140°SE
Pressure: 29.7"   Gusts: NA
Location:  46.66°N, 92.42°W
Report Text: KCOQ 290517Z AUTO 14005KT 10SM OVC028 M08/M11 A2970 RMK AO2
Loading
Personal Weather Stations






























Interactive Weather Map New forecast layout! Learn more

10-Day Weather Forecast

Advertisements
Track Severe Weather on mobile